Weather at Munich Airport

Public forecast

Using degrees Celsius for public forecast. Weather courtesy of forecast.io.

Current aviation weather report (METAR) for Munich Airport

Report is more than 6 hours old.

Retrieved 2022/09/17 18:50 UTC (18 days ago):

EDDM 171850Z AUTO 24012KT 9999 SCT044 09/06 Q1015 TEMPO SHRA SCT030TCU

Aviation forecast (TAF) for Munich Airport

Forecast is more than 12 hours old.

Retrieved 2022/09/17 18:29 UTC (18 days ago):

TAF EDDM 171700Z 1718/1824 26010KT 9999 SCT025 PROB40 TEMPO 1718/1722 30015G25KT SHRA BKN020CB PROB30 TEMPO 1801/1808 BKN012 BECMG 1805/1808 26015G25KT PROB30 TEMPO 1805/1808 SHRA BKN012TCU PROB40 TEMPO 1809/1814 29020G30KT BECMG 1814/1816 26010KT TEMPO 1821/1824 29015G25KT RA